Time;durP1;ratioP1;P1;durP2;ratioP2;P2;SDS_P1;SDS_P2;PMS_P1;PMS_P2;Temp;Humidity;BMP_temperature;BMP_pressure;BME280_temperature;BME280_humidity;BME280_pressure;Samples;Min_cycle;Max_cycle;Signal;HPM_P1;HPM_P2
2022/03/02 00:01:51;;;;;;;24.27;11.20;;;28.90;80.30;;;;;;5085213;28;20100;-44
2022/03/02 00:04:18;;;;;;;27.05;12.10;;;28.90;80.40;;;;;;5085319;28;20036;-42
2022/03/02 00:06:44;;;;;;;23.00;11.50;;;28.90;80.50;;;;;;5085222;28;20024;-41
2022/03/02 00:09:11;;;;;;;22.60;11.40;;;28.90;80.70;;;;;;5085013;28;20020;-44
2022/03/02 00:11:38;;;;;;;32.08;12.30;;;28.90;80.60;;;;;;5085213;28;20333;-42
2022/03/02 00:14:05;;;;;;;23.08;12.02;;;28.90;81.10;;;;;;5085386;28;20201;-43
2022/03/02 00:16:33;;;;;;;21.50;11.60;;;28.90;81.20;;;;;;5085379;28;20111;-40
2022/03/02 00:19:00;;;;;;;20.50;11.88;;;28.90;80.80;;;;;;5084908;28;20039;-39
2022/03/02 00:21:27;;;;;;;23.50;12.73;;;28.90;81.10;;;;;;5085526;28;20025;-41
2022/03/02 00:23:54;;;;;;;20.52;16.05;;;28.90;81.20;;;;;;5084702;28;20036;-41
2022/03/02 00:26:22;;;;;;;18.00;13.07;;;28.90;81.80;;;;;;5085279;28;20232;-44
2022/03/02 00:28:48;;;;;;;17.42;12.77;;;28.90;81.80;;;;;;5084864;28;20216;-44
2022/03/02 00:31:15;;;;;;;26.50;13.07;;;28.90;81.80;;;;;;5084968;28;20076;-45
2022/03/02 00:33:42;;;;;;;21.90;13.48;;;28.90;81.70;;;;;;5084740;28;20316;-42
2022/03/02 00:36:08;;;;;;;19.27;11.88;;;28.90;82.10;;;;;;5085021;28;20032;-42
2022/03/02 00:38:35;;;;;;;18.83;12.60;;;28.90;82.10;;;;;;5084537;28;20021;-44
2022/03/02 00:41:02;;;;;;;15.68;11.98;;;28.90;82.00;;;;;;5085015;28;20044;-42
2022/03/02 00:43:28;;;;;;;18.77;12.48;;;28.90;82.10;;;;;;5084558;28;20012;-39
2022/03/02 00:45:55;;;;;;;18.50;12.00;;;28.80;82.40;;;;;;5084678;28;20051;-43
2022/03/02 00:48:21;;;;;;;20.38;12.15;;;28.80;82.60;;;;;;5084511;28;20028;-43
2022/03/02 00:50:48;;;;;;;19.25;13.10;;;28.80;82.60;;;;;;5084733;28;20021;-41
2022/03/02 00:53:15;;;;;;;21.98;12.63;;;28.80;82.70;;;;;;5084279;28;20028;-42
2022/03/02 00:55:42;;;;;;;17.92;12.85;;;28.80;82.90;;;;;;5084628;28;20042;-44
2022/03/02 00:58:08;;;;;;;19.83;12.80;;;28.80;83.00;;;;;;5084209;28;20027;-40
2022/03/02 01:00:35;;;;;;;23.23;13.13;;;28.80;83.20;;;;;;5084558;28;20036;-38
2022/03/02 01:03:02;;;;;;;24.77;13.48;;;28.80;83.30;;;;;;5084301;28;20021;-43
2022/03/02 01:05:29;;;;;;;19.50;13.48;;;28.80;83.20;;;;;;5083933;28;20040;-44
2022/03/02 01:07:55;;;;;;;22.33;14.70;;;28.80;83.10;;;;;;5083959;28;20058;-42
2022/03/02 01:10:22;;;;;;;16.48;12.98;;;28.80;82.30;;;;;;5084381;28;20039;-44
2022/03/02 01:12:49;;;;;;;16.55;11.38;;;28.80;82.40;;;;;;5084099;28;20224;-43
2022/03/02 01:15:17;;;;;;;17.15;11.98;;;28.80;82.00;;;;;;5084182;28;20025;-47
2022/03/02 01:17:44;;;;;;;17.25;11.32;;;28.80;81.90;;;;;;5084027;28;20264;-44
2022/03/02 01:20:12;;;;;;;18.85;10.85;;;28.80;81.70;;;;;;5084078;28;20247;-44
2022/03/02 01:22:39;;;;;;;16.27;10.60;;;28.80;81.90;;;;;;5083888;28;20024;-43
2022/03/02 01:25:07;;;;;;;16.50;10.30;;;28.70;81.70;;;;;;5083765;28;20067;-44
2022/03/02 01:27:34;;;;;;;17.05;10.75;;;28.80;82.00;;;;;;5084109;28;20016;-40
2022/03/02 01:30:01;;;;;;;18.50;10.95;;;28.70;82.00;;;;;;5084063;28;20036;-41
2022/03/02 01:32:27;;;;;;;18.92;9.55;;;28.80;81.90;;;;;;5083779;28;20032;-39
2022/03/02 01:34:54;;;;;;;17.55;8.82;;;28.80;81.60;;;;;;5083892;28;20025;-39
2022/03/02 01:37:20;;;;;;;15.95;9.52;;;28.70;81.10;;;;;;5083777;28;20033;-42
2022/03/02 01:39:48;;;;;;;20.77;12.32;;;28.70;81.30;;;;;;5083899;28;20029;-41
2022/03/02 01:42:15;;;;;;;20.10;13.88;;;28.70;81.50;;;;;;5083977;28;20028;-42
2022/03/02 01:44:41;;;;;;;19.20;11.32;;;28.70;81.50;;;;;;5083894;28;20040;-40
2022/03/02 01:47:08;;;;;;;14.02;9.32;;;28.70;81.50;;;;;;5083701;28;20057;-41
2022/03/02 01:49:35;;;;;;;18.60;7.93;;;28.70;81.30;;;;;;5083506;28;20035;-43
2022/03/02 01:52:02;;;;;;;14.30;7.68;;;28.70;81.40;;;;;;5083551;28;20016;-43
2022/03/02 01:54:29;;;;;;;14.20;7.32;;;28.70;81.60;;;;;;5083399;28;20045;-43
2022/03/02 01:56:55;;;;;;;12.23;7.22;;;28.70;81.40;;;;;;5083601;28;20134;-43
2022/03/02 01:59:22;;;;;;;14.52;7.03;;;28.70;81.60;;;;;;5083687;28;20024;-44
2022/03/02 02:01:49;;;;;;;12.05;6.88;;;28.70;81.60;;;;;;5083273;28;20130;-41
2022/03/02 02:04:15;;;;;;;16.25;5.75;;;28.70;81.40;;;;;;5083631;28;20023;-42
2022/03/02 02:06:42;;;;;;;10.98;5.85;;;28.70;81.40;;;;;;5083658;28;20095;-44
2022/03/02 02:09:09;;;;;;;10.15;5.72;;;28.70;81.40;;;;;;5083206;28;20281;-38
2022/03/02 02:11:36;;;;;;;11.40;5.57;;;28.70;81.50;;;;;;5083478;28;20024;-43
2022/03/02 02:14:03;;;;;;;13.90;5.05;;;28.70;81.40;;;;;;5083473;28;20033;-41
2022/03/02 02:16:30;;;;;;;11.20;5.25;;;28.70;81.50;;;;;;5083625;28;20378;-41
2022/03/02 02:18:57;;;;;;;11.82;5.50;;;28.70;81.50;;;;;;5083319;28;20036;-44
2022/03/02 02:21:32;;;;;;;14.85;5.60;;;28.70;81.40;;;;;;5082494;28;20028;-42
2022/03/02 02:23:58;;;;;;;8.10;4.78;;;28.70;81.80;;;;;;5082947;28;20216;-44
2022/03/02 02:26:26;;;;;;;16.73;5.50;;;28.70;82.00;;;;;;5083663;28;20032;-44
2022/03/02 02:28:54;;;;;;;12.45;5.90;;;28.60;81.80;;;;;;5083556;28;20028;-42
2022/03/02 02:31:21;;;;;;;14.40;5.78;;;28.60;82.40;;;;;;5083693;28;20029;-43
2022/03/02 02:33:48;;;;;;;13.60;5.47;;;28.60;81.90;;;;;;5083392;28;20024;-44
2022/03/02 02:36:15;;;;;;;12.77;5.40;;;28.60;81.90;;;;;;5083137;28;20029;-45
2022/03/02 02:38:42;;;;;;;12.25;5.20;;;28.60;81.90;;;;;;5083267;28;20066;-40
2022/03/02 02:41:09;;;;;;;10.93;4.72;;;28.60;82.00;;;;;;5083594;28;20032;-41
2022/03/02 02:43:37;;;;;;;12.80;5.10;;;28.60;81.90;;;;;;5083127;28;20028;-41
2022/03/02 02:46:04;;;;;;;13.95;5.00;;;28.60;81.70;;;;;;5083369;28;20028;-41
2022/03/02 02:48:30;;;;;;;10.55;4.80;;;28.60;81.60;;;;;;5083081;28;20100;-42
2022/03/02 02:50:57;;;;;;;70.70;63.97;;;28.60;81.80;;;;;;5083179;28;20255;-42
2022/03/02 02:53:24;;;;;;;9.40;5.82;;;28.60;81.40;;;;;;5084811;28;20097;-45
2022/03/02 02:55:50;;;;;;;12.07;5.60;;;28.60;81.50;;;;;;5086985;28;20032;-38
2022/03/02 02:58:17;;;;;;;15.48;6.10;;;28.60;81.40;;;;;;5086478;28;20091;-36
2022/03/02 03:00:46;;;;;;;7.78;5.45;;;28.60;81.20;;;;;;5086716;28;20020;-38
2022/03/02 03:03:13;;;;;;;12.77;5.75;;;28.60;80.60;;;;;;5086386;28;20313;-38
2022/03/02 03:05:40;;;;;;;11.50;5.25;;;28.60;80.40;;;;;;5086575;28;20041;-40
2022/03/02 03:08:11;;;;;;;10.18;5.20;;;28.60;79.70;;;;;;5086194;28;20047;-40
2022/03/02 03:10:39;;;;;;;14.38;5.63;;;28.60;79.60;;;;;;5086567;28;20035;-45
2022/03/02 03:13:07;;;;;;;11.60;7.90;;;28.60;79.30;;;;;;5086319;28;20028;-40
2022/03/02 03:15:34;;;;;;;15.52;10.20;;;28.60;79.30;;;;;;5086521;28;20095;-40
2022/03/02 03:18:02;;;;;;;14.20;6.20;;;28.60;79.50;;;;;;5086201;28;20067;-40
2022/03/02 03:20:31;;;;;;;12.50;7.38;;;28.60;79.40;;;;;;5086048;28;20036;-40
2022/03/02 03:22:58;;;;;;;10.30;6.40;;;28.60;79.30;;;;;;5085911;28;20036;-40
2022/03/02 03:25:25;;;;;;;13.25;5.80;;;28.50;79.20;;;;;;5086047;28;20051;-43
2022/03/02 03:27:53;;;;;;;8.93;5.00;;;28.60;79.30;;;;;;5086001;28;20020;-42
2022/03/02 03:30:21;;;;;;;24.60;13.88;;;28.50;78.70;;;;;;5086046;28;20353;-40
2022/03/02 03:32:49;;;;;;;32.13;28.80;;;28.50;79.20;;;;;;5085994;28;20020;-42
2022/03/02 03:35:17;;;;;;;52.20;46.95;;;28.60;79.50;;;;;;5086385;28;20047;-45
2022/03/02 03:37:45;;;;;;;102.05;93.13;;;28.50;79.30;;;;;;5085932;28;20024;-47
2022/03/02 03:40:13;;;;;;;22.65;19.73;;;28.50;79.50;;;;;;5085990;28;20033;-40
2022/03/02 03:42:40;;;;;;;22.48;17.45;;;28.50;79.00;;;;;;5085670;28;20029;-44
2022/03/02 03:45:09;;;;;;;18.48;16.58;;;28.50;78.70;;;;;;5084498;28;20033;-41
2022/03/02 03:47:36;;;;;;;20.98;16.25;;;28.50;78.60;;;;;;5086188;28;20028;-41
2022/03/02 03:50:04;;;;;;;13.18;11.68;;;28.50;78.70;;;;;;5085526;28;20305;-44
2022/03/02 03:52:30;;;;;;;14.43;10.10;;;28.40;79.00;;;;;;5085678;28;20325;-41
2022/03/02 03:54:57;;;;;;;17.40;9.65;;;28.50;79.30;;;;;;5085796;28;20035;-40
2022/03/02 03:57:24;;;;;;;11.48;9.02;;;28.50;79.40;;;;;;5085381;28;20178;-48
2022/03/02 03:59:50;;;;;;;14.02;8.90;;;28.50;79.20;;;;;;5085564;28;20064;-49
2022/03/02 04:02:17;;;;;;;13.15;7.65;;;28.50;79.50;;;;;;5085370;28;20023;-41
2022/03/02 04:04:43;;;;;;;8.88;5.88;;;28.40;79.30;;;;;;5084968;28;20033;-40
2022/03/02 04:07:10;;;;;;;9.68;6.10;;;28.50;79.70;;;;;;5085557;28;20042;-47
2022/03/02 04:09:37;;;;;;;12.25;6.97;;;28.50;79.80;;;;;;5085468;28;20025;-42
2022/03/02 04:12:04;;;;;;;15.23;6.47;;;28.40;79.60;;;;;;5085194;28;20029;-42
2022/03/02 04:14:30;;;;;;;13.30;6.43;;;28.40;79.00;;;;;;5084982;28;20017;-42
2022/03/02 04:16:57;;;;;;;56.35;9.88;;;28.40;79.20;;;;;;5085002;28;20280;-41
2022/03/02 04:19:24;;;;;;;68.22;11.05;;;28.30;79.50;;;;;;5085011;28;20042;-44
2022/03/02 04:21:50;;;;;;;28.40;7.90;;;28.30;79.80;;;;;;5084924;28;20096;-43
2022/03/02 04:24:17;;;;;;;25.52;7.20;;;28.40;79.30;;;;;;5085027;28;20090;-48
2022/03/02 04:26:44;;;;;;;24.50;6.28;;;28.40;79.80;;;;;;5084849;28;20092;-41
2022/03/02 04:29:10;;;;;;;17.42;6.15;;;28.40;80.40;;;;;;5084644;28;20025;-44
2022/03/02 04:31:37;;;;;;;21.98;5.95;;;28.40;80.40;;;;;;5085098;28;20032;-45
2022/03/02 04:34:04;;;;;;;17.35;4.68;;;28.40;80.30;;;;;;5085119;28;20327;-41
2022/03/02 04:36:30;;;;;;;14.60;5.00;;;28.30;80.50;;;;;;5085054;28;20086;-43
2022/03/02 04:38:58;;;;;;;16.80;4.57;;;28.30;80.70;;;;;;5084622;28;20024;-41
2022/03/02 04:41:24;;;;;;;14.68;4.72;;;28.30;80.80;;;;;;5085102;28;20301;-42
2022/03/02 04:43:51;;;;;;;17.05;4.55;;;28.20;80.90;;;;;;5084445;28;20091;-41
2022/03/02 04:46:17;;;;;;;15.15;4.65;;;28.20;81.00;;;;;;5084945;28;20245;-44
2022/03/02 04:48:44;;;;;;;16.83;4.18;;;28.20;81.10;;;;;;5084467;28;20056;-43
2022/03/02 04:51:11;;;;;;;9.30;3.88;;;28.20;81.10;;;;;;5084675;28;20024;-43
2022/03/02 04:53:37;;;;;;;10.80;4.07;;;28.10;80.90;;;;;;5084339;28;20017;-41
2022/03/02 04:56:04;;;;;;;11.80;3.63;;;28.10;80.80;;;;;;5084711;28;20040;-45
2022/03/02 04:58:31;;;;;;;10.60;4.20;;;28.10;80.90;;;;;;5084162;28;20032;-43
2022/03/02 05:00:57;;;;;;;10.63;3.80;;;28.10;80.80;;;;;;5084627;28;20082;-45
2022/03/02 05:03:24;;;;;;;10.95;4.03;;;28.10;80.90;;;;;;5084250;28;20078;-41
2022/03/02 05:05:50;;;;;;;9.93;3.58;;;28.10;80.80;;;;;;5083899;28;20028;-52
2022/03/02 05:08:17;;;;;;;11.18;3.78;;;28.10;80.80;;;;;;5084418;28;20052;-44
2022/03/02 05:10:43;;;;;;;9.25;3.67;;;28.10;80.80;;;;;;5084549;28;20025;-42
2022/03/02 05:13:10;;;;;;;7.50;3.33;;;28.10;80.70;;;;;;5083946;28;20040;-45
2022/03/02 05:15:36;;;;;;;8.18;3.60;;;28.10;80.90;;;;;;5083739;28;20044;-41
2022/03/02 05:18:03;;;;;;;7.82;3.08;;;28.10;80.80;;;;;;5084032;28;20243;-42
2022/03/02 05:20:30;;;;;;;9.95;3.55;;;28.10;80.80;;;;;;5084250;28;20272;-54
2022/03/02 05:22:56;;;;;;;6.72;3.35;;;28.10;80.70;;;;;;5083938;28;20266;-45
2022/03/02 05:25:26;;;;;;;7.43;3.33;;;28.00;80.30;;;;;;5084104;28;20309;-42
2022/03/02 05:27:53;;;;;;;7.18;3.33;;;28.00;80.40;;;;;;5083830;28;20021;-48
2022/03/02 05:30:20;;;;;;;7.15;3.20;;;28.00;80.80;;;;;;5084119;28;20046;-41
2022/03/02 05:32:49;;;;;;;7.55;3.33;;;28.00;80.70;;;;;;5083881;28;20031;-41
2022/03/02 05:35:15;;;;;;;6.65;3.40;;;28.00;80.70;;;;;;5083896;28;20127;-45
2022/03/02 05:37:45;;;;;;;5.80;3.15;;;27.90;81.20;;;;;;5083860;28;20040;-40
2022/03/02 05:40:14;;;;;;;9.80;3.47;;;27.90;80.50;;;;;;5083946;28;20029;-41
2022/03/02 05:42:41;;;;;;;7.50;3.40;;;27.90;80.70;;;;;;5083599;28;20024;-41
2022/03/02 05:45:09;;;;;;;9.88;3.88;;;27.80;80.80;;;;;;5083856;28;20313;-41
2022/03/02 05:47:39;;;;;;;9.40;3.50;;;27.90;81.30;;;;;;5083832;28;20032;-41
2022/03/02 05:50:07;;;;;;;9.75;3.90;;;27.90;81.50;;;;;;5083531;28;20066;-45
2022/03/02 05:52:34;;;;;;;8.68;3.58;;;27.80;81.90;;;;;;5083912;28;20042;-44
2022/03/02 05:55:01;;;;;;;9.02;3.70;;;27.80;81.90;;;;;;5083747;28;20035;-42
2022/03/02 05:57:28;;;;;;;5.40;3.40;;;27.90;81.90;;;;;;5083544;28;20028;-42
2022/03/02 05:59:54;;;;;;;7.20;3.60;;;27.90;81.90;;;;;;5083846;28;20021;-43
2022/03/02 06:02:21;;;;;;;7.85;3.92;;;27.90;81.60;;;;;;5083765;28;20028;-42
2022/03/02 06:04:48;;;;;;;11.75;3.40;;;27.90;81.40;;;;;;5083435;28;20017;-41
2022/03/02 06:07:15;;;;;;;7.05;3.58;;;27.90;81.80;;;;;;5083603;28;20092;-42
2022/03/02 06:09:42;;;;;;;8.20;3.63;;;27.90;81.50;;;;;;5083690;28;20040;-44
2022/03/02 06:12:09;;;;;;;7.68;3.63;;;27.90;81.40;;;;;;5083355;28;20362;-42
2022/03/02 06:14:37;;;;;;;8.07;3.38;;;27.80;81.50;;;;;;5083664;28;20043;-42
2022/03/02 06:17:03;;;;;;;6.32;2.97;;;27.90;81.10;;;;;;5083449;28;20020;-43
2022/03/02 06:19:30;;;;;;;8.40;3.70;;;27.80;81.00;;;;;;5083284;28;20037;-42
2022/03/02 06:22:01;;;;;;;7.13;3.50;;;27.90;81.40;;;;;;5083489;28;20016;-49
2022/03/02 06:24:29;;;;;;;7.30;3.00;;;27.90;80.80;;;;;;5083390;28;20044;-42
2022/03/02 06:26:55;;;;;;;10.43;3.28;;;27.90;80.70;;;;;;5084715;28;20043;-42
2022/03/02 06:29:22;;;;;;;6.60;3.30;;;27.80;80.60;;;;;;5087086;28;20208;-41
2022/03/02 06:31:50;;;;;;;8.65;3.17;;;27.90;80.60;;;;;;5087264;28;20032;-42
2022/03/02 06:34:16;;;;;;;9.68;3.58;;;27.80;80.20;;;;;;5086821;28;20039;-43
2022/03/02 06:36:45;;;;;;;8.35;2.80;;;27.80;79.90;;;;;;5086927;28;20024;-42
2022/03/02 06:39:11;;;;;;;7.55;3.10;;;27.80;80.30;;;;;;5086840;28;20037;-49
2022/03/02 06:41:56;;;;;;;7.53;3.42;;;27.80;80.60;;;;;;5086843;28;20084;-41
2022/03/02 06:44:59;;;;;;;10.52;3.65;;;27.80;80.40;;;;;;5086785;28;20028;-40
2022/03/02 06:47:35;;;;;;;7.15;4.03;;;27.80;80.20;;;;;;5086957;28;20024;-41
2022/03/02 06:50:14;;;;;;;6.55;3.40;;;27.70;79.80;;;;;;5086483;28;20094;-45
2022/03/02 06:52:43;;;;;;;8.13;3.67;;;27.70;79.70;;;;;;5086755;28;20044;-41
2022/03/02 06:55:18;;;;;;;7.35;3.45;;;27.70;80.00;;;;;;5086838;28;20201;-43
2022/03/02 06:58:00;;;;;;;6.43;3.33;;;27.70;79.80;;;;;;5086642;28;20047;-42
2022/03/02 07:00:27;;;;;;;9.05;3.50;;;27.70;79.70;;;;;;5086754;28;20075;-43
2022/03/02 07:03:10;;;;;;;7.60;4.00;;;27.70;79.60;;;;;;5086700;28;20028;-46
2022/03/02 07:05:38;;;;;;;7.00;3.25;;;27.60;79.40;;;;;;5086733;28;20103;-43
2022/03/02 07:08:06;;;;;;;6.15;3.80;;;27.70;79.90;;;;;;5086293;28;20020;-42
2022/03/02 07:10:33;;;;;;;5.78;3.72;;;27.60;79.40;;;;;;5086717;28;20033;-43
2022/03/02 07:13:02;;;;;;;9.52;4.10;;;27.60;79.40;;;;;;5086366;28;20029;-42
2022/03/02 07:15:32;;;;;;;7.07;4.05;;;27.60;79.70;;;;;;5086415;28;20328;-42
2022/03/02 07:18:03;;;;;;;5.43;3.30;;;27.60;79.50;;;;;;5086300;28;20043;-41
2022/03/02 07:20:30;;;;;;;7.50;3.63;;;27.70;79.20;;;;;;5086426;28;20073;-45
2022/03/02 07:23:00;;;;;;;5.68;3.75;;;27.60;78.70;;;;;;5086197;28;20067;-41
2022/03/02 07:25:30;;;;;;;6.93;3.60;;;27.60;78.90;;;;;;5086278;28;20036;-41
2022/03/02 07:27:58;;;;;;;7.43;3.70;;;27.60;78.90;;;;;;5085997;28;20374;-46
2022/03/02 07:30:27;;;;;;;8.95;3.45;;;27.60;79.00;;;;;;5086495;28;20303;-43
2022/03/02 07:32:58;;;;;;;8.18;3.60;;;27.60;79.00;;;;;;5086069;28;20013;-41
2022/03/02 07:35:25;;;;;;;6.50;3.53;;;27.60;79.10;;;;;;5085780;28;20028;-45
2022/03/02 07:37:55;;;;;;;8.15;3.47;;;27.60;78.60;;;;;;5085565;28;20093;-39
2022/03/02 07:40:21;;;;;;;6.63;3.30;;;27.60;78.60;;;;;;5085797;28;20048;-36
2022/03/02 07:42:49;;;;;;;7.22;3.50;;;27.50;78.80;;;;;;5085706;28;20021;-39
2022/03/02 07:45:16;;;;;;;5.47;3.20;;;27.60;78.50;;;;;;5085894;28;20260;-39
2022/03/02 07:47:44;;;;;;;7.88;3.22;;;27.60;78.30;;;;;;5085656;28;20043;-38
2022/03/02 07:50:13;;;;;;;6.50;3.17;;;27.60;78.10;;;;;;5085693;28;20028;-38
2022/03/02 07:52:45;;;;;;;4.85;2.78;;;27.60;78.40;;;;;;5085597;28;20056;-39
2022/03/02 07:55:12;;;;;;;5.63;3.20;;;27.60;78.10;;;;;;5085746;28;20065;-35
2022/03/02 07:57:40;;;;;;;6.10;3.10;;;27.60;78.10;;;;;;5085544;28;20036;-39
2022/03/02 08:00:11;;;;;;;7.05;2.97;;;27.60;77.90;;;;;;5085533;28;20066;-36
2022/03/02 08:02:40;;;;;;;4.83;2.80;;;27.60;77.70;;;;;;5085380;28;20021;-39
2022/03/02 08:05:07;;;;;;;8.57;2.80;;;27.70;77.60;;;;;;5085532;28;20315;-38
2022/03/02 08:07:35;;;;;;;5.65;2.80;;;27.60;77.50;;;;;;5085292;28;20212;-49
2022/03/02 08:10:04;;;;;;;5.95;2.72;;;27.60;77.80;;;;;;5085217;28;20185;-41
2022/03/02 08:12:30;;;;;;;7.18;3.03;;;27.60;77.60;;;;;;5085462;28;20048;-41
2022/03/02 08:14:57;;;;;;;4.88;2.70;;;27.60;77.70;;;;;;5085292;28;20028;-44
2022/03/02 08:17:24;;;;;;;8.02;3.03;;;27.60;77.50;;;;;;5084946;28;20259;-43
2022/03/02 08:19:50;;;;;;;4.68;2.63;;;27.60;77.40;;;;;;5085179;28;20028;-45
2022/03/02 08:22:19;;;;;;;5.50;2.70;;;27.60;77.50;;;;;;5084942;28;20024;-42
2022/03/02 08:25:01;;;;;;;5.55;2.83;;;27.60;77.30;;;;;;5084790;28;20048;-46
2022/03/02 08:27:29;;;;;;;6.63;3.00;;;27.60;77.20;;;;;;5084945;28;20235;-41
2022/03/02 08:29:57;;;;;;;6.90;2.67;;;27.60;77.40;;;;;;5085035;28;20055;-48
2022/03/02 08:32:25;;;;;;;5.50;2.55;;;27.60;77.70;;;;;;5084797;28;20032;-42
2022/03/02 08:34:52;;;;;;;9.13;2.53;;;27.60;77.50;;;;;;5084688;28;20086;-41
2022/03/02 08:37:20;;;;;;;6.00;2.50;;;27.60;77.60;;;;;;5084654;28;20017;-46
2022/03/02 08:39:48;;;;;;;7.60;2.35;;;27.60;77.50;;;;;;5084748;28;20131;-40
2022/03/02 08:42:15;;;;;;;7.00;2.88;;;27.60;77.40;;;;;;5084582;28;20016;-43
2022/03/02 08:44:46;;;;;;;5.82;2.70;;;27.70;77.70;;;;;;5084580;28;20025;-41
2022/03/02 08:47:14;;;;;;;6.28;2.92;;;27.70;77.60;;;;;;5084475;28;20054;-44
2022/03/02 08:49:40;;;;;;;6.93;2.70;;;27.70;77.70;;;;;;5084144;28;20199;-43
2022/03/02 08:52:08;;;;;;;4.85;2.60;;;27.60;77.40;;;;;;5083891;28;20035;-42
2022/03/02 08:54:44;;;;;;;3.88;2.60;;;27.60;77.80;;;;;;5084698;28;20312;-41
2022/03/02 08:57:10;;;;;;;5.50;2.80;;;27.60;77.80;;;;;;5084353;28;20024;-41
2022/03/02 08:59:39;;;;;;;6.40;2.55;;;27.60;77.80;;;;;;5084287;28;20064;-40
2022/03/02 09:02:08;;;;;;;7.05;2.88;;;27.60;78.00;;;;;;5084159;28;20024;-41
2022/03/02 09:04:36;;;;;;;7.75;2.90;;;27.60;78.20;;;;;;5084340;28;20032;-42
2022/03/02 09:07:04;;;;;;;6.85;2.60;;;27.60;78.40;;;;;;5083966;28;20024;-37
2022/03/02 09:09:31;;;;;;;5.95;3.00;;;27.70;78.50;;;;;;5084395;28;20024;-37
2022/03/02 09:11:58;;;;;;;8.98;2.83;;;27.60;78.50;;;;;;5084130;28;20046;-36
2022/03/02 09:14:25;;;;;;;5.78;2.88;;;27.60;78.40;;;;;;5083978;28;20016;-40
2022/03/02 09:16:52;;;;;;;5.90;2.80;;;27.60;78.40;;;;;;5084133;28;20118;-38
2022/03/02 09:19:19;;;;;;;5.65;2.60;;;27.60;78.10;;;;;;5084051;28;20033;-40
2022/03/02 09:21:47;;;;;;;4.53;2.83;;;27.60;77.90;;;;;;5083916;28;20407;-40
2022/03/02 09:24:15;;;;;;;3.50;2.47;;;27.60;77.80;;;;;;5083914;28;20244;-41
2022/03/02 09:26:42;;;;;;;4.18;2.80;;;27.60;77.80;;;;;;5083863;28;20146;-40
2022/03/02 09:29:09;;;;;;;6.25;3.00;;;27.60;77.90;;;;;;5083704;28;20079;-41
2022/03/02 09:31:37;;;;;;;6.22;2.85;;;27.60;77.70;;;;;;5084048;28;20012;-41
2022/03/02 09:34:09;;;;;;;7.45;2.97;;;27.60;77.90;;;;;;5083863;28;20025;-43
2022/03/02 09:36:37;;;;;;;4.93;3.05;;;27.60;77.80;;;;;;5084079;28;20047;-40
2022/03/02 09:39:09;;;;;;;4.47;3.15;;;27.60;77.80;;;;;;5082724;28;20043;-40
2022/03/02 09:41:49;;;;;;;6.55;3.20;;;27.60;77.60;;;;;;5083717;28;20029;-40
2022/03/02 09:44:21;;;;;;;7.57;3.20;;;27.60;77.40;;;;;;5083799;28;20033;-40
2022/03/02 09:46:56;;;;;;;7.68;3.10;;;27.60;77.70;;;;;;5083686;28;20328;-47
2022/03/02 09:49:26;;;;;;;6.75;3.58;;;27.60;77.90;;;;;;5083722;28;20375;-43
2022/03/02 09:52:03;;;;;;;5.65;2.97;;;27.60;78.10;;;;;;5083858;28;20027;-44
2022/03/02 09:54:36;;;;;;;6.78;3.55;;;27.60;78.00;;;;;;5083751;28;20101;-45
2022/03/02 09:57:06;;;;;;;7.97;3.55;;;27.60;77.80;;;;;;5083666;28;20040;-42
2022/03/02 09:59:36;;;;;;;5.85;3.35;;;27.60;77.80;;;;;;5083560;28;20109;-41
2022/03/02 10:02:07;;;;;;;6.05;3.38;;;27.60;77.70;;;;;;5085136;28;20082;-41
2022/03/02 10:04:35;;;;;;;7.22;3.50;;;27.60;77.60;;;;;;5087646;28;20036;-42
2022/03/02 10:10:10;;;;;;;9.43;3.90;;;27.60;77.70;;;;;;5087762;28;20031;-40
2022/03/02 10:12:38;;;;;;;7.40;3.33;;;27.50;77.60;;;;;;5087542;28;20039;-41
2022/03/02 10:15:12;;;;;;;10.07;3.83;;;27.50;77.50;;;;;;5087573;28;20032;-41
2022/03/02 10:17:44;;;;;;;5.43;3.30;;;27.50;77.50;;;;;;5087727;28;20032;-44
2022/03/02 10:20:16;;;;;;;7.47;3.53;;;27.50;77.80;;;;;;5087633;28;20312;-45
2022/03/02 10:22:42;;;;;;;8.98;3.58;;;27.50;77.70;;;;;;5087163;28;20016;-40
2022/03/02 10:25:13;;;;;;;6.93;3.78;;;27.50;77.70;;;;;;5087266;28;20333;-41
2022/03/02 10:27:51;;;;;;;8.95;4.00;;;27.50;77.80;;;;;;5087215;28;20023;-41
2022/03/02 10:30:19;;;;;;;6.72;3.50;;;27.50;77.60;;;;;;5087350;28;20040;-40
2022/03/02 10:32:53;;;;;;;6.35;3.47;;;27.50;77.80;;;;;;5087160;28;20028;-44
2022/03/02 10:35:23;;;;;;;8.45;3.90;;;27.50;77.60;;;;;;5087136;28;20032;-40
2022/03/02 10:37:53;;;;;;;7.88;4.18;;;27.50;77.10;;;;;;5086994;28;20063;-40
2022/03/02 10:40:25;;;;;;;9.43;3.92;;;27.50;77.30;;;;;;5087155;28;20082;-40
2022/03/02 10:43:10;;;;;;;8.35;4.63;;;27.50;77.40;;;;;;5087086;28;20251;-40
2022/03/02 10:45:44;;;;;;;8.38;3.92;;;27.50;77.30;;;;;;5086991;28;20029;-41
2022/03/02 10:48:14;;;;;;;9.93;4.47;;;27.50;77.30;;;;;;5086728;28;20036;-42
2022/03/02 10:50:42;;;;;;;8.13;4.20;;;27.50;77.30;;;;;;5085606;28;20259;-41
2022/03/02 10:53:15;;;;;;;6.97;4.32;;;27.50;77.50;;;;;;5086934;28;20092;-40
2022/03/02 10:55:47;;;;;;;8.10;4.10;;;27.50;77.10;;;;;;5085463;28;20316;-41
2022/03/02 10:58:18;;;;;;;7.90;4.22;;;27.50;77.20;;;;;;5086593;28;20063;-44
2022/03/02 11:00:46;;;;;;;8.00;4.53;;;27.50;77.10;;;;;;5086577;28;20024;-42
2022/03/02 11:03:14;;;;;;;6.47;3.97;;;27.40;77.40;;;;;;5086753;28;20032;-40
2022/03/02 11:05:41;;;;;;;7.45;4.25;;;27.50;77.10;;;;;;5086760;28;20029;-41
2022/03/02 11:08:08;;;;;;;11.82;4.18;;;27.50;77.40;;;;;;5086379;28;20309;-41
2022/03/02 11:10:37;;;;;;;9.23;4.05;;;27.50;77.30;;;;;;5086682;28;20255;-43
2022/03/02 11:13:12;;;;;;;7.53;3.80;;;27.50;77.30;;;;;;5085377;28;20017;-49
2022/03/02 11:15:54;;;;;;;7.47;3.75;;;27.50;77.40;;;;;;5086571;28;20036;-42
2022/03/02 11:18:36;;;;;;;8.35;4.07;;;27.50;77.50;;;;;;5086209;28;20035;-43
2022/03/02 11:21:09;;;;;;;11.30;4.37;;;27.50;77.40;;;;;;5086148;28;20037;-41
2022/03/02 11:24:00;;;;;;;7.65;4.32;;;27.50;77.60;;;;;;5086663;28;20269;-43
2022/03/02 11:26:29;;;;;;;10.68;4.20;;;27.50;77.60;;;;;;5086636;28;20075;-41
2022/03/02 11:28:59;;;;;;;8.57;4.05;;;27.50;77.80;;;;;;5085959;28;20023;-41
2022/03/02 11:31:47;;;;;;;9.43;4.70;;;27.50;77.50;;;;;;5086590;28;20091;-41
2022/03/02 11:34:29;;;;;;;4.78;4.03;;;27.50;77.60;;;;;;5085718;28;20040;-40
2022/03/02 11:37:04;;;;;;;7.78;3.92;;;27.50;77.60;;;;;;5086060;28;20087;-44
2022/03/02 11:39:31;;;;;;;8.82;4.40;;;27.50;77.60;;;;;;5085863;28;20035;-41
2022/03/02 11:42:01;;;;;;;9.02;4.35;;;27.50;77.50;;;;;;5085878;28;20028;-45
2022/03/02 11:44:39;;;;;;;8.13;3.90;;;27.40;78.20;;;;;;5085883;28;20265;-42
2022/03/02 11:47:16;;;;;;;10.80;4.10;;;27.40;77.20;;;;;;5085831;28;20039;-41
2022/03/02 11:49:46;;;;;;;12.57;4.30;;;27.40;77.30;;;;;;5085583;28;20021;-44
2022/03/02 11:52:17;;;;;;;9.35;4.50;;;27.40;77.60;;;;;;5085427;28;20039;-43
2022/03/02 11:54:56;;;;;;;6.07;3.80;;;27.40;77.40;;;;;;5085512;28;20032;-40
2022/03/02 11:57:26;;;;;;;6.15;3.72;;;27.40;77.50;;;;;;5085352;28;20062;-45
2022/03/02 12:00:17;;;;;;;10.27;4.43;;;27.40;77.70;;;;;;5085727;28;20029;-42
2022/03/02 12:02:52;;;;;;;7.72;3.80;;;27.30;77.60;;;;;;5085237;28;20036;-41
2022/03/02 12:05:25;;;;;;;11.82;3.88;;;27.30;77.50;;;;;;5085422;28;20035;-42
2022/03/02 12:08:02;;;;;;;8.43;3.80;;;27.30;77.10;;;;;;5084018;28;20039;-44
2022/03/02 12:10:32;;;;;;;7.50;3.42;;;27.30;77.40;;;;;;5085434;28;20043;-41
2022/03/02 12:12:59;;;;;;;8.32;3.05;;;27.30;77.20;;;;;;5085176;28;20095;-46
2022/03/02 12:15:41;;;;;;;9.27;3.38;;;27.30;77.00;;;;;;5085197;28;20029;-42
2022/03/02 12:18:10;;;;;;;9.88;3.60;;;27.30;76.60;;;;;;5085099;28;20044;-42
2022/03/02 12:20:47;;;;;;;7.03;3.35;;;27.30;77.10;;;;;;5085112;28;20248;-41
2022/03/02 12:23:22;;;;;;;6.82;3.78;;;27.30;77.00;;;;;;5084931;28;20366;-43
2022/03/02 12:25:48;;;;;;;6.75;3.58;;;27.30;77.20;;;;;;5084729;28;20255;-41
2022/03/02 12:28:17;;;;;;;9.32;3.63;;;27.30;77.10;;;;;;5084991;28;20205;-42
2022/03/02 12:30:44;;;;;;;8.60;3.80;;;27.30;77.10;;;;;;5085117;28;20024;-40
2022/03/02 12:33:13;;;;;;;6.20;3.50;;;27.30;77.40;;;;;;5084539;28;20051;-41
2022/03/02 12:35:40;;;;;;;5.43;3.40;;;27.30;77.80;;;;;;5084637;28;20099;-42
2022/03/02 12:38:10;;;;;;;5.22;3.17;;;27.30;77.10;;;;;;5084738;28;20035;-43
2022/03/02 12:40:42;;;;;;;6.53;3.83;;;27.30;77.20;;;;;;5084860;28;20051;-41
2022/03/02 12:43:13;;;;;;;5.97;3.50;;;27.30;77.20;;;;;;5084626;28;20099;-44
2022/03/02 12:45:43;;;;;;;7.70;3.60;;;27.30;77.40;;;;;;5084821;28;20205;-41
2022/03/02 12:48:12;;;;;;;9.10;3.70;;;27.30;77.60;;;;;;5084748;28;20045;-41
2022/03/02 12:50:40;;;;;;;9.38;3.90;;;27.30;77.60;;;;;;5084865;28;20360;-41
2022/03/02 12:53:06;;;;;;;9.23;3.92;;;27.30;77.50;;;;;;5084221;28;20064;-45